Nautilus — ISPC — position and weather

sailwx.info

Track history (hours):
 
Tides and Currents Weather Stations Pressure Air Temp Water Temp Dewpoint Dewpoint Depression Visibility Wind Speed Wind Dir Waves Ship Positions

Nautilus

Last reported at 2017-Aug-18 13:15 UTC. Time now 2017-Aug-18 14:20 UTC.
Position N 42°48' E 010°12'.

Length 25 m.

Type: Ship. MMSI: 247205700.

Date/timePositionNaut miles runAvg speedWind from/ knotsBaromVisibWave heightAir tempDewpointWater temp
2017-Aug-18 13:15N 42°48' E 010°12'0 0.0
2017-Aug-18 12:14N 42°48' E 010°12'0 0.0
2017-Aug-18 11:59N 42°48' E 010°12'1 3.0
2017-Aug-18 11:30N 42°49' E 010°14'4 7.4
2017-Aug-18 11:00N 42°50' E 010°19'1 2.1
2017-Aug-18 10:30N 42°49' E 010°19'1 1.5
2017-Aug-18 10:00N 42°50' E 010°19'2 4.1
2017-Aug-18 09:30N 42°50' E 010°17'1 1.3
2017-Aug-18 09:00N 42°50' E 010°17'2 3.4
2017-Aug-18 08:30N 42°49' E 010°19'1 1.1
2017-Aug-18 07:59N 42°49' E 010°20'5 7.7
2017-Aug-18 07:19N 42°49' E 010°13'1 3.2
2017-Aug-18 07:00N 42°49' E 010°12'0 0.0
2017-Aug-18 06:30N 42°49' E 010°12'0 0.0
2017-Aug-18 05:59N 42°49' E 010°12'0 0.0
2017-Aug-18 05:30N 42°49' E 010°12'0 0.0
2017-Aug-18 05:00N 42°49' E 010°12'0 0.0
2017-Aug-18 04:25N 42°49' E 010°12'0 0.0
2017-Aug-18 03:04N 42°49' E 010°12'0 0.0
2017-Aug-18 02:56N 42°49' E 010°12'0 0.0
2017-Aug-18 01:25N 42°49' E 010°12'0 0.0
2017-Aug-18 00:18N 42°49' E 010°12'0 0.0
2017-Aug-17 23:56N 42°49' E 010°12'0 0.0
2017-Aug-17 22:59N 42°49' E 010°12'0 0.0
2017-Aug-17 22:30N 42°49' E 010°12'0 0.0
2017-Aug-17 21:52N 42°49' E 010°12'0 0.0
2017-Aug-17 21:30N 42°49' E 010°12'0 0.0
2017-Aug-17 20:59N 42°49' E 010°12'0 0.0
2017-Aug-17 20:27N 42°49' E 010°12'0 0.0
2017-Aug-17 20:00N 42°49' E 010°12'0 0.0
2017-Aug-17 19:30N 42°49' E 010°12'0 0.0
2017-Aug-17 19:00N 42°49' E 010°12'0 0.0
2017-Aug-17 18:30N 42°49' E 010°12'0 0.0
2017-Aug-17 17:54N 42°49' E 010°12'0 0.0
2017-Aug-17 17:29N 42°49' E 010°12'0 0.0
2017-Aug-17 16:49N 42°49' E 010°12'0 0.0
2017-Aug-17 16:30N 42°49' E 010°12'1 1.5
2017-Aug-17 15:59N 42°49' E 010°11'4 7.1
2017-Aug-17 15:29N 42°48' E 010°06'2 1.8
2017-Aug-17 14:30N 42°46' E 010°06'3 6.3
2017-Aug-17 14:00N 42°49' E 010°08'3 5.2
2017-Aug-17 13:30N 42°48' E 010°12'0 0.0
2017-Aug-17 13:00N 42°48' E 010°12'0 0.0
2017-Aug-17 12:22N 42°48' E 010°12'0 0.6
2017-Aug-17 11:57N 42°49' E 010°12'4 7.9
2017-Aug-17 11:29N 42°50' E 010°17'2 3.8
2017-Aug-17 10:55N 42°50' E 010°20'1 1.6
2017-Aug-17 10:22N 42°49' E 010°20'1 2.0
2017-Aug-17 09:53N 42°50' E 010°19'3 4.1
2017-Aug-17 09:16N 42°49' E 010°16'3 6.5
2017-Aug-17 08:46N 42°49' E 010°20'0 0.5
2017-Aug-17 07:54N 42°49' E 010°20'3 7.0
2017-Aug-17 07:30N 42°50' E 010°17'4 7.1
2017-Aug-17 07:00N 42°49' E 010°12'0 0.3
2017-Aug-17 06:29N 42°49' E 010°12'0 0.0
2017-Aug-17 05:59N 42°49' E 010°12'0 0.0
2017-Aug-17 05:29N 42°49' E 010°12'0 0.0
2017-Aug-17 05:00N 42°49' E 010°12'0 0.0
2017-Aug-17 04:30N 42°49' E 010°12'0 0.0
2017-Aug-17 03:59N 42°49' E 010°12'0 0.0
2017-Aug-17 03:23N 42°49' E 010°12'0 0.0
2017-Aug-17 02:59N 42°49' E 010°12'0 0.0
2017-Aug-17 02:30N 42°49' E 010°12'0 0.0
2017-Aug-17 02:00N 42°49' E 010°12'0 0.0
2017-Aug-17 01:30N 42°49' E 010°12'0 0.0
2017-Aug-17 00:59N 42°49' E 010°12'0 0.0
2017-Aug-17 00:29N 42°49' E 010°12'0 0.0
2017-Aug-17 00:00N 42°49' E 010°12'0 0.0
2017-Aug-16 23:30N 42°49' E 010°12'0 0.0
2017-Aug-16 22:58N 42°49' E 010°12'0 0.0
2017-Aug-16 22:30N 42°49' E 010°12'0 0.0
2017-Aug-16 21:36N 42°49' E 010°12'0 0.0
2017-Aug-16 21:30N 42°49' E 010°12'0 0.0
2017-Aug-16 20:20N 42°49' E 010°12'0 0.0
2017-Aug-16 19:57N 42°49' E 010°12'0 0.0
2017-Aug-16 19:26N 42°49' E 010°12'0 0.0
2017-Aug-16 18:56N 42°49' E 010°12'0 0.0
2017-Aug-16 18:30N 42°49' E 010°12'0 0.0
2017-Aug-16 17:44N 42°49' E 010°12'0 0.0
2017-Aug-16 17:25N 42°49' E 010°12'0 0.0
2017-Aug-16 16:56N 42°49' E 010°12'0 0.4
2017-Aug-16 16:30N 42°48' E 010°12'1 1.4
2017-Aug-16 16:00N 42°49' E 010°11'4 7.5
2017-Aug-16 15:30N 42°48' E 010°06'1 1.3
2017-Aug-16 14:26N 42°46' E 010°06'3 6.1
2017-Aug-16 13:58N 42°49' E 010°08'3 5.1
2017-Aug-16 13:25N 42°48' E 010°12'0 0.0
2017-Aug-16 13:00N 42°48' E 010°12'0 0.0
2017-Aug-16 12:27N 42°48' E 010°12'0 0.5
2017-Aug-16 12:00N 42°49' E 010°12'4 7.7
2017-Aug-16 11:29N 42°50' E 010°18'2 3.0
2017-Aug-16 10:54N 42°50' E 010°20'1 1.9
2017-Aug-16 10:25N 42°49' E 010°19'1 1.8
2017-Aug-16 10:00N 42°50' E 010°19'2 3.3
2017-Aug-16 09:30N 42°50' E 010°17'0 0.1
2017-Aug-16 09:00N 42°50' E 010°17'2 2.5
2017-Aug-16 08:16N 42°49' E 010°19'0 1.1
2017-Aug-16 07:58N 42°49' E 010°20'3 6.8
2017-Aug-16 07:30N 42°50' E 010°16'3 6.5
2017-Aug-16 07:00N 42°49' E 010°12'0 0.0
2017-Aug-16 06:15N 42°49' E 010°12'0 0.0
2017-Aug-16 06:00N 42°49' E 010°12'0 0.0
2017-Aug-16 02:43N 42°49' E 010°12'0 0.0
2017-Aug-16 00:56N 42°49' E 010°12'0 0.0
2017-Aug-16 00:24N 42°49' E 010°12'0 0.0
2017-Aug-15 23:57N 42°49' E 010°12'0 0.0
2017-Aug-15 23:29N 42°49' E 010°12'0 0.0
2017-Aug-15 22:55N 42°49' E 010°12'0 0.0
2017-Aug-15 22:24N 42°49' E 010°12'0 0.0
2017-Aug-15 22:00N 42°49' E 010°12'0 0.0
2017-Aug-15 21:30N 42°49' E 010°12'0 0.0
2017-Aug-15 20:28N 42°49' E 010°12'0 0.0
2017-Aug-15 19:50N 42°49' E 010°12'0 0.0
2017-Aug-15 19:23N 42°49' E 010°12'0 0.0
2017-Aug-15 17:11N 42°49' E 010°12'0 0.0
2017-Aug-15 16:55N 42°49' E 010°12'1 0.2
2017-Aug-15 13:45N 42°49' E 010°11'1 2.4
2017-Aug-15 13:28N 42°48' E 010°12'0 0.0
2017-Aug-15 13:00N 42°48' E 010°12'0 0.0
2017-Aug-15 12:26N 42°48' E 010°12'0 0.0
2017-Aug-15 11:56N 42°48' E 010°12'0 0.3
2017-Aug-15 11:29N 42°48' E 010°12'5 5.9
2017-Aug-15 10:33N 42°49' E 010°19'1 2.6
2017-Aug-15 10:13N 42°50' E 010°20'1 0.4
2017-Aug-15 08:03N 42°49' E 010°20'0 6.4
2017-Aug-15 08:00N 42°49' E 010°20'6 6.6
2017-Aug-15 07:10N 42°49' E 010°12'0 0.9
2017-Aug-15 06:44N 42°49' E 010°12'0 0.0
2017-Aug-15 04:28N 42°49' E 010°12'0 0.0
2017-Aug-15 03:59N 42°49' E 010°12'0 0.0
2017-Aug-15 02:55N 42°49' E 010°12'0 0.0
2017-Aug-15 02:30N 42°49' E 010°12'0 0.0
2017-Aug-15 02:00N 42°49' E 010°12'0 0.0
2017-Aug-15 01:28N 42°49' E 010°12'0 0.0
2017-Aug-15 01:00N 42°49' E 010°12'0 0.0
2017-Aug-15 00:28N 42°49' E 010°12'0 0.0
2017-Aug-15 00:00N 42°49' E 010°12'0 0.0
2017-Aug-14 21:28N 42°49' E 010°12'0 0.0
2017-Aug-14 20:22N 42°49' E 010°12'0 0.0
2017-Aug-14 19:56N 42°49' E 010°12'0 0.0
2017-Aug-14 19:21N 42°49' E 010°12'0 0.0
2017-Aug-14 18:54N 42°49' E 010°12'0 0.0
2017-Aug-14 18:30N 42°49' E 010°12'0 0.0
2017-Aug-14 18:00N 42°49' E 010°12'0 0.0
2017-Aug-14 17:29N 42°49' E 010°12'0 0.0
2017-Aug-14 16:59N 42°49' E 010°12'0 0.2
2017-Aug-14 16:12N 42°48' E 010°12'2 6.0
2017-Aug-14 15:53N 42°49' E 010°09'3 7.0
2017-Aug-14 15:29N 42°47' E 010°06'1 0.7
2017-Aug-14 14:05N 42°48' E 010°07'1 9.3
2017-Aug-14 14:00N 42°48' E 010°08'3 3.4
2017-Aug-14 13:05N 42°48' E 010°12'0 0.0
2017-Aug-14 13:00N 42°48' E 010°12'0 0.0
2017-Aug-14 12:30N 42°48' E 010°12'0 0.0
2017-Aug-14 11:54N 42°48' E 010°12'0 1.2
2017-Aug-14 11:30N 42°49' E 010°12'4 8.2
2017-Aug-14 11:00N 42°50' E 010°18'2 2.9
2017-Aug-14 10:28N 42°49' E 010°19'1 1.7
2017-Aug-14 10:00N 42°50' E 010°19'2 3.8
2017-Aug-14 09:30N 42°50' E 010°17'1 1.3
2017-Aug-14 08:59N 42°50' E 010°18'2 1.5
2017-Aug-14 07:56N 42°49' E 010°19'2 4.9
2017-Aug-14 07:30N 42°50' E 010°17'4 7.5
2017-Aug-14 07:00N 42°49' E 010°12'0 0.4
2017-Aug-14 06:30N 42°49' E 010°12'0 0.0
2017-Aug-14 06:00N 42°49' E 010°12'0 0.0
2017-Aug-14 05:30N 42°49' E 010°12'0 0.0
2017-Aug-14 05:00N 42°49' E 010°12'0 0.0
2017-Aug-14 04:30N 42°49' E 010°12'0 0.0
2017-Aug-14 04:00N 42°49' E 010°12'0 0.0
2017-Aug-14 03:30N 42°49' E 010°12'0 0.0
2017-Aug-14 03:00N 42°49' E 010°12'0 0.0
2017-Aug-14 02:30N 42°49' E 010°12'0 0.0
2017-Aug-14 01:33N 42°49' E 010°12'0 0.1
2017-Aug-14 01:30N 42°49' E 010°12'0 0.0
2017-Aug-14 00:53N 42°49' E 010°12'0 0.0
2017-Aug-13 23:01N 42°49' E 010°12'0 0.0
2017-Aug-13 23:00N 42°49' E 010°12'0 0.0
2017-Aug-13 22:29N 42°49' E 010°12'0 0.0
2017-Aug-13 21:58N 42°49' E 010°12'0 0.0
2017-Aug-13 20:11N 42°49' E 010°12'0 0.0
2017-Aug-13 19:59N 42°49' E 010°12'0 0.0
2017-Aug-13 19:30N 42°49' E 010°12'0 0.0
2017-Aug-13 19:00N 42°49' E 010°12'0 0.0
2017-Aug-13 18:30N 42°49' E 010°12'0 0.0
2017-Aug-13 18:00N 42°49' E 010°12'0 0.0
2017-Aug-13 17:30N 42°49' E 010°12'0 0.0
2017-Aug-13 17:00N 42°49' E 010°12'0 0.0
2017-Aug-13 16:30N 42°49' E 010°12'0 0.3
2017-Aug-13 16:00N 42°48' E 010°12'3 6.5
2017-Aug-13 15:30N 42°48' E 010°08'3 2.5
2017-Aug-13 14:29N 42°46' E 010°06'3 6.0
2017-Aug-13 14:00N 42°49' E 010°08'3 5.5
2017-Aug-13 13:30N 42°48' E 010°12'0 0.0
2017-Aug-13 13:00N 42°48' E 010°12'0 0.0
2017-Aug-13 12:11N 42°48' E 010°12'0 0.5
2017-Aug-13 11:32N 42°49' E 010°12'0 8.4
2017-Aug-13 11:28N 42°49' E 010°13'4 7.8
2017-Aug-13 10:56N 42°50' E 010°18'1 2.6
2017-Aug-13 10:29N 42°49' E 010°19'1 1.6
2017-Aug-13 10:00N 42°50' E 010°19'2 4.2
2017-Aug-13 09:25N 42°50' E 010°16'1 1.6
2017-Aug-13 09:00N 42°50' E 010°17'2 3.9
2017-Aug-13 08:30N 42°49' E 010°19'0 0.0
2017-Aug-13 07:58N 42°49' E 010°19'2 4.7
2017-Aug-13 07:29N 42°50' E 010°17'4 7.6
2017-Aug-13 07:00N 42°48' E 010°12'0 0.3
2017-Aug-13 06:30N 42°49' E 010°12'0 0.0
2017-Aug-13 06:00N 42°49' E 010°12'0 0.0
2017-Aug-13 05:23N 42°49' E 010°12'0 0.0
2017-Aug-13 05:00N 42°49' E 010°12'0 0.0
2017-Aug-13 04:30N 42°49' E 010°12'0 0.0
2017-Aug-13 03:58N 42°49' E 010°12'0 0.0
2017-Aug-13 03:30N 42°49' E 010°12'0 0.0
2017-Aug-13 03:00N 42°49' E 010°12'0 0.0
2017-Aug-13 02:30N 42°49' E 010°12'0 0.0
2017-Aug-13 02:00N 42°49' E 010°12'0 0.0
2017-Aug-13 01:30N 42°49' E 010°12'0 0.0
2017-Aug-13 01:00N 42°49' E 010°12'0 0.0
2017-Aug-13 00:18N 42°49' E 010°12'0 0.0
2017-Aug-12 23:59N 42°49' E 010°12'0 0.0
2017-Aug-12 23:30N 42°49' E 010°12'0 0.0
2017-Aug-12 22:59N 42°49' E 010°12'0 0.1
2017-Aug-12 22:30N 42°49' E 010°12'0 0.3
2017-Aug-12 22:00N 42°49' E 010°12'0 0.3
2017-Aug-12 21:28N 42°49' E 010°12'0 0.0
2017-Aug-12 20:40N 42°49' E 010°12'0 0.0
2017-Aug-12 20:30N 42°49' E 010°12'0 0.0
2017-Aug-12 19:47N 42°49' E 010°12'0 0.0
2017-Aug-12 19:24N 42°49' E 010°12'0 0.0
2017-Aug-12 19:00N 42°49' E 010°12'0 0.0
2017-Aug-12 18:30N 42°49' E 010°12'0 0.0
2017-Aug-12 18:00N 42°49' E 010°12'0 0.0
2017-Aug-12 17:30N 42°49' E 010°12'0 0.0
2017-Aug-12 16:55N 42°49' E 010°12'0 0.0
2017-Aug-12 16:30N 42°49' E 010°12'0 0.0
2017-Aug-12 16:00N 42°49' E 010°12'0 0.0
2017-Aug-12 15:30N 42°49' E 010°12'0 0.0
2017-Aug-12 15:00N 42°49' E 010°12'0 0.0
2017-Aug-12 14:30N 42°49' E 010°12'0 0.0
2017-Aug-12 13:57N 42°49' E 010°12'0 0.0
2017-Aug-12 13:26N 42°49' E 010°12'0 0.0
2017-Aug-12 12:50N 42°49' E 010°12'0 0.0
2017-Aug-12 12:18N 42°49' E 010°12'0 0.0
2017-Aug-12 11:55N 42°49' E 010°12'0 0.0
2017-Aug-12 11:29N 42°49' E 010°12'0 0.0
2017-Aug-12 10:59N 42°49' E 010°12'0 0.0
2017-Aug-12 10:29N 42°49' E 010°12'0 0.0
2017-Aug-12 10:00N 42°49' E 010°12'0 0.0
2017-Aug-12 09:30N 42°49' E 010°12'0 0.0
2017-Aug-12 09:00N 42°49' E 010°12'0 0.0
2017-Aug-12 08:30N 42°49' E 010°12'0 0.0
2017-Aug-12 07:58N 42°49' E 010°12'0 0.0
2017-Aug-12 07:30N 42°49' E 010°12'0 0.0
2017-Aug-12 06:58N 42°49' E 010°12'0 0.0
2017-Aug-12 06:30N 42°49' E 010°12'0 0.0
2017-Aug-12 05:59N 42°49' E 010°12'0 0.0
2017-Aug-12 05:30N 42°49' E 010°12'0 0.0
2017-Aug-12 04:58N 42°49' E 010°12'0 0.0
2017-Aug-12 04:29N 42°49' E 010°12'0 0.0
2017-Aug-12 04:00N 42°49' E 010°12'0 0.0
2017-Aug-12 03:30N 42°49' E 010°12'0 0.0
2017-Aug-12 03:00N 42°49' E 010°12'0 0.0
2017-Aug-12 02:30N 42°49' E 010°12'0 0.0
2017-Aug-12 01:59N 42°49' E 010°12'0 0.0
2017-Aug-12 01:30N 42°49' E 010°12'0 0.0
2017-Aug-12 01:00N 42°49' E 010°12'0 0.0
2017-Aug-12 00:29N 42°49' E 010°12'0 0.0
2017-Aug-12 00:00N 42°49' E 010°12'0 0.0
2017-Aug-11 23:30N 42°49' E 010°12'0 0.0
2017-Aug-11 22:59N 42°49' E 010°12'0 0.0
2017-Aug-11 22:29N 42°49' E 010°12'0 0.0
2017-Aug-11 21:56N 42°49' E 010°12'0 0.0
2017-Aug-11 21:30N 42°49' E 010°12'0 0.0
2017-Aug-11 21:00N 42°49' E 010°12'0 0.0
2017-Aug-11 20:29N 42°49' E 010°12'0 0.0
2017-Aug-11 20:00N 42°49' E 010°12'0 0.0
2017-Aug-11 19:29N 42°49' E 010°12'0 0.0
2017-Aug-11 19:00N 42°49' E 010°12'0 0.0
2017-Aug-11 18:27N 42°49' E 010°12'0 0.0
2017-Aug-11 17:59N 42°49' E 010°12'0 0.0
2017-Aug-11 17:30N 42°49' E 010°12'0 0.0
2017-Aug-11 16:59N 42°49' E 010°12'0 0.0
2017-Aug-11 16:29N 42°49' E 010°12'0 0.0
2017-Aug-11 16:00N 42°49' E 010°12'0 0.0
2017-Aug-11 15:29N 42°49' E 010°12'0 0.0
2017-Aug-11 14:58N 42°49' E 010°12'0 0.0
2017-Aug-11 13:59N 42°49' E 010°12'0 0.0
2017-Aug-11 13:30N 42°49' E 010°12'0 0.0
2017-Aug-11 13:00N 42°49' E 010°12'0 0.0
2017-Aug-11 12:29N 42°49' E 010°12'0 0.0
2017-Aug-11 11:59N 42°49' E 010°12'0 0.0
2017-Aug-11 11:30N 42°49' E 010°12'0 0.0
2017-Aug-11 10:59N 42°49' E 010°12'0 0.0
2017-Aug-11 10:29N 42°49' E 010°12'0 0.0
2017-Aug-11 10:00N 42°49' E 010°12'0 0.0
2017-Aug-11 09:30N 42°49' E 010°12'0 0.0
2017-Aug-11 09:00N 42°49' E 010°12'0 0.0
2017-Aug-11 08:30N 42°49' E 010°12'0 0.0
2017-Aug-11 08:00N 42°49' E 010°12'0 0.0
2017-Aug-11 07:30N 42°49' E 010°12'0 0.0
2017-Aug-11 07:00N 42°49' E 010°12'0 0.0
2017-Aug-11 06:30N 42°49' E 010°12'0 0.0
2017-Aug-11 05:59N 42°49' E 010°12'0 0.0
2017-Aug-11 05:30N 42°49' E 010°12'0 0.0
2017-Aug-11 05:00N 42°49' E 010°12'0 0.0
2017-Aug-11 04:30N 42°49' E 010°12'0 0.0
2017-Aug-11 04:00N 42°49' E 010°12'0 0.0
2017-Aug-11 03:30N 42°49' E 010°12'0 0.0
2017-Aug-11 03:00N 42°49' E 010°12'0 0.0
2017-Aug-11 02:30N 42°49' E 010°12'0 0.0
2017-Aug-11 02:00N 42°49' E 010°12'0 0.0
2017-Aug-11 01:29N 42°49' E 010°12'0 0.0
2017-Aug-11 01:00N 42°49' E 010°12'0 0.0
2017-Aug-11 00:30N 42°49' E 010°12'0 0.0
2017-Aug-11 00:00N 42°49' E 010°12'0 0.0
2017-Aug-10 23:30N 42°49' E 010°12'0 0.0
2017-Aug-10 23:00N 42°49' E 010°12'0 0.0
2017-Aug-10 22:30N 42°49' E 010°12'0 0.0
2017-Aug-10 21:59N 42°49' E 010°12'0 0.0
2017-Aug-10 21:30N 42°49' E 010°12'0 0.0
2017-Aug-10 21:00N 42°49' E 010°12'0 0.0
2017-Aug-10 20:30N 42°49' E 010°12'0 0.0
2017-Aug-10 20:00N 42°49' E 010°12'0 0.0
2017-Aug-10 19:30N 42°49' E 010°12'0 0.0
2017-Aug-10 18:59N 42°49' E 010°12'0 0.0
2017-Aug-10 18:28N 42°49' E 010°12'0 0.0
2017-Aug-10 17:58N 42°49' E 010°12'0 0.0
2017-Aug-10 17:28N 42°49' E 010°12'0 0.0
2017-Aug-10 17:00N 42°49' E 010°12'0 0.0
2017-Aug-10 16:27N 42°49' E 010°12'0 0.0
2017-Aug-10 15:49N 42°49' E 010°12'0 0.0
2017-Aug-10 15:19N 42°49' E 010°12'0 0.0
2017-Aug-10 15:00N 42°49' E 010°12'0 0.0
2017-Aug-10 14:30N 42°49' E 010°12'0 0.0
2017-Aug-10 14:00N 42°49' E 010°12'0 0.0
2017-Aug-10 13:30N 42°49' E 010°12'0 0.0
2017-Aug-10 13:00N 42°49' E 010°12'0 0.0
2017-Aug-10 12:30N 42°49' E 010°12'0 0.0
2017-Aug-10 12:00N 42°49' E 010°12'0 0.0
2017-Aug-10 11:30N 42°49' E 010°12'0 0.0
2017-Aug-10 11:00N 42°49' E 010°12'0 0.0
2017-Aug-10 10:29N 42°49' E 010°12'0 0.0
2017-Aug-10 10:00N 42°49' E 010°12'0 0.0
2017-Aug-10 06:25N 42°49' E 010°12'0 0.0
2017-Aug-10 05:47N 42°49' E 010°12'0 0.0
2017-Aug-10 05:27N 42°49' E 010°12'0 0.0
2017-Aug-10 04:57N 42°49' E 010°12'0 0.0
2017-Aug-10 04:26N 42°49' E 010°12'0 0.0
2017-Aug-10 04:00N 42°49' E 010°12'0 0.0
2017-Aug-10 03:17N 42°49' E 010°12'0 0.0
2017-Aug-10 03:00N 42°49' E 010°12'0 0.0
2017-Aug-10 02:30N 42°49' E 010°12'0 0.0
2017-Aug-10 02:00N 42°49' E 010°12'0 0.0
2017-Aug-10 01:30N 42°49' E 010°12'0 0.0
2017-Aug-10 01:00N 42°49' E 010°12'0 0.0
2017-Aug-10 00:30N 42°49' E 010°12'0 0.0
2017-Aug-10 00:00N 42°49' E 010°12'0 0.0
2017-Aug-09 23:29N 42°49' E 010°12'0 0.0
2017-Aug-09 23:00N 42°49' E 010°12'0 0.0
2017-Aug-09 22:30N 42°49' E 010°12'0 0.0
2017-Aug-09 22:00N 42°49' E 010°12'0 0.0
2017-Aug-09 21:30N 42°49' E 010°12'0 0.0
2017-Aug-09 21:00N 42°49' E 010°12'0 0.0
2017-Aug-09 20:30N 42°49' E 010°12'0 0.0
2017-Aug-09 20:00N 42°49' E 010°12'0 0.0
2017-Aug-09 19:29N 42°49' E 010°12'0 0.0
2017-Aug-09 18:49N 42°49' E 010°12'0 0.0
2017-Aug-09 18:28N 42°49' E 010°12'0 0.0
2017-Aug-09 17:56N 42°49' E 010°12'0 0.0
2017-Aug-09 17:30N 42°49' E 010°12'0 0.0
2017-Aug-09 17:00N 42°49' E 010°12'0 0.0
2017-Aug-09 16:29N 42°49' E 010°12'0 0.2
2017-Aug-09 15:59N 42°48' E 010°12'4 7.5
2017-Aug-09 15:30N 42°48' E 010°07'1 0.5
2017-Aug-09 14:13N 42°48' E 010°06'2 8.4
2017-Aug-09 14:00N 42°49' E 010°08'3 1.3
2017-Aug-09 11:57N 42°48' E 010°12'0 0.0
2017-Aug-09 06:56N 42°49' E 010°12'0 0.0
2017-Aug-09 06:30N 42°49' E 010°12'0 0.0
2017-Aug-09 05:53N 42°49' E 010°12'0 0.0
2017-Aug-09 05:27N 42°49' E 010°12'0 0.0
2017-Aug-09 04:51N 42°49' E 010°12'0 0.0
2017-Aug-09 04:30N 42°49' E 010°12'0 0.0
2017-Aug-09 03:59N 42°49' E 010°12'0 0.0
2017-Aug-09 03:29N 42°49' E 010°12'0 0.0
2017-Aug-09 02:09N 42°49' E 010°12'0 0.0
2017-Aug-09 02:00N 42°49' E 010°12'0 0.0
2017-Aug-09 01:28N 42°49' E 010°12'0 0.0
2017-Aug-09 01:00N 42°49' E 010°12'0 0.0
2017-Aug-09 00:29N 42°49' E 010°12'0 0.0
2017-Aug-09 00:00N 42°49' E 010°12'0 0.0
2017-Aug-08 23:25N 42°49' E 010°12'0 0.0
2017-Aug-08 23:00N 42°49' E 010°12'0 0.0
2017-Aug-08 22:30N 42°49' E 010°12'0 0.0
2017-Aug-08 22:00N 42°49' E 010°12'0 0.0
2017-Aug-08 21:27N 42°49' E 010°12'0 0.0
2017-Aug-08 20:59N 42°49' E 010°12'0 0.0
2017-Aug-08 20:28N 42°49' E 010°12'0 0.0
2017-Aug-08 20:00N 42°49' E 010°12'0 0.0
2017-Aug-08 19:30N 42°49' E 010°12'0 0.0
2017-Aug-08 19:00N 42°49' E 010°12'0 0.0
2017-Aug-08 18:30N 42°49' E 010°12'0 0.0
2017-Aug-08 18:00N 42°49' E 010°12'0 0.0
2017-Aug-08 17:29N 42°49' E 010°12'0 0.0
2017-Aug-08 17:00N 42°49' E 010°12'0 0.0
2017-Aug-08 16:30N 42°49' E 010°12'0 0.3
2017-Aug-08 16:00N 42°48' E 010°12'3 6.7
2017-Aug-08 15:30N 42°49' E 010°07'1 0.4
2017-Aug-08 14:06N 42°48' E 010°07'2 8.2
2017-Aug-08 13:54N 42°49' E 010°09'2 5.4
2017-Aug-08 13:28N 42°48' E 010°12'  
Track history (hours):
 
Tides and Currents Weather Stations Pressure Air Temp Water Temp Dewpoint Dewpoint Depression Visibility Wind Speed Wind Dir Waves Ship Positions

Nautilus

Last reported at 2017-Aug-18 13:15 UTC. Time now 2017-Aug-18 14:20 UTC.
Position N 42°48' E 010°12'.

Length 25 m.

Type: Ship. MMSI: 247205700.

Date/timePositionNaut miles runAvg speedWind from/ knotsBaromVisibWave heightAir tempDewpointWater temp
2017-Aug-18 13:15N 42°48' E 010°12'0 0.0
2017-Aug-18 12:14N 42°48' E 010°12'0 0.0
2017-Aug-18 11:59N 42°48' E 010°12'1 3.0
2017-Aug-18 11:30N 42°49' E 010°14'4 7.4
2017-Aug-18 11:00N 42°50' E 010°19'1 2.1
2017-Aug-18 10:30N 42°49' E 010°19'1 1.5
2017-Aug-18 10:00N 42°50' E 010°19'2 4.1
2017-Aug-18 09:30N 42°50' E 010°17'1 1.3
2017-Aug-18 09:00N 42°50' E 010°17'2 3.4
2017-Aug-18 08:30N 42°49' E 010°19'1 1.1
2017-Aug-18 07:59N 42°49' E 010°20'5 7.7
2017-Aug-18 07:19N 42°49' E 010°13'1 3.2
2017-Aug-18 07:00N 42°49' E 010°12'0 0.0
2017-Aug-18 06:30N 42°49' E 010°12'0 0.0
2017-Aug-18 05:59N 42°49' E 010°12'0 0.0
2017-Aug-18 05:30N 42°49' E 010°12'0 0.0
2017-Aug-18 05:00N 42°49' E 010°12'0 0.0
2017-Aug-18 04:25N 42°49' E 010°12'0 0.0
2017-Aug-18 03:04N 42°49' E 010°12'0 0.0
2017-Aug-18 02:56N 42°49' E 010°12'0 0.0
2017-Aug-18 01:25N 42°49' E 010°12'0 0.0
2017-Aug-18 00:18N 42°49' E 010°12'0 0.0
2017-Aug-17 23:56N 42°49' E 010°12'0 0.0
2017-Aug-17 22:59N 42°49' E 010°12'0 0.0
2017-Aug-17 22:30N 42°49' E 010°12'0 0.0
2017-Aug-17 21:52N 42°49' E 010°12'0 0.0
2017-Aug-17 21:30N 42°49' E 010°12'0 0.0
2017-Aug-17 20:59N 42°49' E 010°12'0 0.0
2017-Aug-17 20:27N 42°49' E 010°12'0 0.0
2017-Aug-17 20:00N 42°49' E 010°12'0 0.0
2017-Aug-17 19:30N 42°49' E 010°12'0 0.0
2017-Aug-17 19:00N 42°49' E 010°12'0 0.0
2017-Aug-17 18:30N 42°49' E 010°12'0 0.0
2017-Aug-17 17:54N 42°49' E 010°12'0 0.0
2017-Aug-17 17:29N 42°49' E 010°12'0 0.0
2017-Aug-17 16:49N 42°49' E 010°12'0 0.0
2017-Aug-17 16:30N 42°49' E 010°12'1 1.5
2017-Aug-17 15:59N 42°49' E 010°11'4 7.1
2017-Aug-17 15:29N 42°48' E 010°06'2 1.8
2017-Aug-17 14:30N 42°46' E 010°06'3 6.3
2017-Aug-17 14:00N 42°49' E 010°08'3 5.2
2017-Aug-17 13:30N 42°48' E 010°12'0 0.0
2017-Aug-17 13:00N 42°48' E 010°12'0 0.0
2017-Aug-17 12:22N 42°48' E 010°12'0 0.6
2017-Aug-17 11:57N 42°49' E 010°12'4 7.9
2017-Aug-17 11:29N 42°50' E 010°17'2 3.8
2017-Aug-17 10:55N 42°50' E 010°20'1 1.6
2017-Aug-17 10:22N 42°49' E 010°20'1 2.0
2017-Aug-17 09:53N 42°50' E 010°19'3 4.1
2017-Aug-17 09:16N 42°49' E 010°16'3 6.5
2017-Aug-17 08:46N 42°49' E 010°20'0 0.5
2017-Aug-17 07:54N 42°49' E 010°20'3 7.0
2017-Aug-17 07:30N 42°50' E 010°17'4 7.1
2017-Aug-17 07:00N 42°49' E 010°12'0 0.3
2017-Aug-17 06:29N 42°49' E 010°12'0 0.0
2017-Aug-17 05:59N 42°49' E 010°12'0 0.0
2017-Aug-17 05:29N 42°49' E 010°12'0 0.0
2017-Aug-17 05:00N 42°49' E 010°12'0 0.0
2017-Aug-17 04:30N 42°49' E 010°12'0 0.0
2017-Aug-17 03:59N 42°49' E 010°12'0 0.0
2017-Aug-17 03:23N 42°49' E 010°12'0 0.0
2017-Aug-17 02:59N 42°49' E 010°12'0 0.0
2017-Aug-17 02:30N 42°49' E 010°12'0 0.0
2017-Aug-17 02:00N 42°49' E 010°12'0 0.0
2017-Aug-17 01:30N 42°49' E 010°12'0 0.0
2017-Aug-17 00:59N 42°49' E 010°12'0 0.0
2017-Aug-17 00:29N 42°49' E 010°12'0 0.0
2017-Aug-17 00:00N 42°49' E 010°12'0 0.0
2017-Aug-16 23:30N 42°49' E 010°12'0 0.0
2017-Aug-16 22:58N 42°49' E 010°12'0 0.0
2017-Aug-16 22:30N 42°49' E 010°12'0 0.0
2017-Aug-16 21:36N 42°49' E 010°12'0 0.0
2017-Aug-16 21:30N 42°49' E 010°12'0 0.0
2017-Aug-16 20:20N 42°49' E 010°12'0 0.0
2017-Aug-16 19:57N 42°49' E 010°12'0 0.0
2017-Aug-16 19:26N 42°49' E 010°12'0 0.0
2017-Aug-16 18:56N 42°49' E 010°12'0 0.0
2017-Aug-16 18:30N 42°49' E 010°12'0 0.0
2017-Aug-16 17:44N 42°49' E 010°12'0 0.0
2017-Aug-16 17:25N 42°49' E 010°12'0 0.0
2017-Aug-16 16:56N 42°49' E 010°12'0 0.4
2017-Aug-16 16:30N 42°48' E 010°12'1 1.4
2017-Aug-16 16:00N 42°49' E 010°11'4 7.5
2017-Aug-16 15:30N 42°48' E 010°06'1 1.3
2017-Aug-16 14:26N 42°46' E 010°06'3 6.1
2017-Aug-16 13:58N 42°49' E 010°08'3 5.1
2017-Aug-16 13:25N 42°48' E 010°12'0 0.0
2017-Aug-16 13:00N 42°48' E 010°12'0 0.0
2017-Aug-16 12:27N 42°48' E 010°12'0 0.5
2017-Aug-16 12:00N 42°49' E 010°12'4 7.7
2017-Aug-16 11:29N 42°50' E 010°18'2 3.0
2017-Aug-16 10:54N 42°50' E 010°20'1 1.9
2017-Aug-16 10:25N 42°49' E 010°19'1 1.8
2017-Aug-16 10:00N 42°50' E 010°19'2 3.3
2017-Aug-16 09:30N 42°50' E 010°17'0 0.1
2017-Aug-16 09:00N 42°50' E 010°17'2 2.5
2017-Aug-16 08:16N 42°49' E 010°19'0 1.1
2017-Aug-16 07:58N 42°49' E 010°20'3 6.8
2017-Aug-16 07:30N 42°50' E 010°16'3 6.5
2017-Aug-16 07:00N 42°49' E 010°12'0 0.0
2017-Aug-16 06:15N 42°49' E 010°12'0 0.0
2017-Aug-16 06:00N 42°49' E 010°12'0 0.0
2017-Aug-16 02:43N 42°49' E 010°12'0 0.0
2017-Aug-16 00:56N 42°49' E 010°12'0 0.0
2017-Aug-16 00:24N 42°49' E 010°12'0 0.0
2017-Aug-15 23:57N 42°49' E 010°12'0 0.0
2017-Aug-15 23:29N 42°49' E 010°12'0 0.0
2017-Aug-15 22:55N 42°49' E 010°12'0 0.0
2017-Aug-15 22:24N 42°49' E 010°12'0 0.0
2017-Aug-15 22:00N 42°49' E 010°12'0 0.0
2017-Aug-15 21:30N 42°49' E 010°12'0 0.0
2017-Aug-15 20:28N 42°49' E 010°12'0 0.0
2017-Aug-15 19:50N 42°49' E 010°12'0 0.0
2017-Aug-15 19:23N 42°49' E 010°12'0 0.0
2017-Aug-15 17:11N 42°49' E 010°12'0 0.0
2017-Aug-15 16:55N 42°49' E 010°12'1 0.2
2017-Aug-15 13:45N 42°49' E 010°11'1 2.4
2017-Aug-15 13:28N 42°48' E 010°12'0 0.0
2017-Aug-15 13:00N 42°48' E 010°12'0 0.0
2017-Aug-15 12:26N 42°48' E 010°12'0 0.0
2017-Aug-15 11:56N 42°48' E 010°12'0 0.3
2017-Aug-15 11:29N 42°48' E 010°12'5 5.9
2017-Aug-15 10:33N 42°49' E 010°19'1 2.6
2017-Aug-15 10:13N 42°50' E 010°20'1 0.4
2017-Aug-15 08:03N 42°49' E 010°20'0 6.4
2017-Aug-15 08:00N 42°49' E 010°20'6 6.6
2017-Aug-15 07:10N 42°49' E 010°12'0 0.9
2017-Aug-15 06:44N 42°49' E 010°12'0 0.0
2017-Aug-15 04:28N 42°49' E 010°12'0 0.0
2017-Aug-15 03:59N 42°49' E 010°12'0 0.0
2017-Aug-15 02:55N 42°49' E 010°12'0 0.0
2017-Aug-15 02:30N 42°49' E 010°12'0 0.0
2017-Aug-15 02:00N 42°49' E 010°12'0 0.0
2017-Aug-15 01:28N 42°49' E 010°12'0 0.0
2017-Aug-15 01:00N 42°49' E 010°12'0 0.0
2017-Aug-15 00:28N 42°49' E 010°12'0 0.0
2017-Aug-15 00:00N 42°49' E 010°12'0 0.0
2017-Aug-14 21:28N 42°49' E 010°12'0 0.0
2017-Aug-14 20:22N 42°49' E 010°12'0 0.0
2017-Aug-14 19:56N 42°49' E 010°12'0 0.0
2017-Aug-14 19:21N 42°49' E 010°12'0 0.0
2017-Aug-14 18:54N 42°49' E 010°12'0 0.0
2017-Aug-14 18:30N 42°49' E 010°12'0 0.0
2017-Aug-14 18:00N 42°49' E 010°12'0 0.0
2017-Aug-14 17:29N 42°49' E 010°12'0 0.0
2017-Aug-14 16:59N 42°49' E 010°12'0 0.2
2017-Aug-14 16:12N 42°48' E 010°12'2 6.0
2017-Aug-14 15:53N 42°49' E 010°09'3 7.0
2017-Aug-14 15:29N 42°47' E 010°06'1 0.7
2017-Aug-14 14:05N 42°48' E 010°07'1 9.3
2017-Aug-14 14:00N 42°48' E 010°08'3 3.4
2017-Aug-14 13:05N 42°48' E 010°12'0 0.0
2017-Aug-14 13:00N 42°48' E 010°12'0 0.0
2017-Aug-14 12:30N 42°48' E 010°12'0 0.0
2017-Aug-14 11:54N 42°48' E 010°12'0 1.2
2017-Aug-14 11:30N 42°49' E 010°12'4 8.2
2017-Aug-14 11:00N 42°50' E 010°18'2 2.9
2017-Aug-14 10:28N 42°49' E 010°19'1 1.7
2017-Aug-14 10:00N 42°50' E 010°19'2 3.8
2017-Aug-14 09:30N 42°50' E 010°17'1 1.3
2017-Aug-14 08:59N 42°50' E 010°18'2 1.5
2017-Aug-14 07:56N 42°49' E 010°19'2 4.9
2017-Aug-14 07:30N 42°50' E 010°17'4 7.5
2017-Aug-14 07:00N 42°49' E 010°12'0 0.4
2017-Aug-14 06:30N 42°49' E 010°12'0 0.0
2017-Aug-14 06:00N 42°49' E 010°12'0 0.0
2017-Aug-14 05:30N 42°49' E 010°12'0 0.0
2017-Aug-14 05:00N 42°49' E 010°12'0 0.0
2017-Aug-14 04:30N 42°49' E 010°12'0 0.0
2017-Aug-14 04:00N 42°49' E 010°12'0 0.0
2017-Aug-14 03:30N 42°49' E 010°12'0 0.0
2017-Aug-14 03:00N 42°49' E 010°12'0 0.0
2017-Aug-14 02:30N 42°49' E 010°12'0 0.0
2017-Aug-14 01:33N 42°49' E 010°12'0 0.1
2017-Aug-14 01:30N 42°49' E 010°12'0 0.0
2017-Aug-14 00:53N 42°49' E 010°12'0 0.0
2017-Aug-13 23:01N 42°49' E 010°12'0 0.0
2017-Aug-13 23:00N 42°49' E 010°12'0 0.0
2017-Aug-13 22:29N 42°49' E 010°12'0 0.0
2017-Aug-13 21:58N 42°49' E 010°12'0 0.0
2017-Aug-13 20:11N 42°49' E 010°12'0 0.0
2017-Aug-13 19:59N 42°49' E 010°12'0 0.0
2017-Aug-13 19:30N 42°49' E 010°12'0 0.0
2017-Aug-13 19:00N 42°49' E 010°12'0 0.0
2017-Aug-13 18:30N 42°49' E 010°12'0 0.0
2017-Aug-13 18:00N 42°49' E 010°12'0 0.0
2017-Aug-13 17:30N 42°49' E 010°12'0 0.0
2017-Aug-13 17:00N 42°49' E 010°12'0 0.0
2017-Aug-13 16:30N 42°49' E 010°12'0 0.3
2017-Aug-13 16:00N 42°48' E 010°12'3 6.5
2017-Aug-13 15:30N 42°48' E 010°08'3 2.5
2017-Aug-13 14:29N 42°46' E 010°06'3 6.0
2017-Aug-13 14:00N 42°49' E 010°08'3 5.5
2017-Aug-13 13:30N 42°48' E 010°12'0 0.0
2017-Aug-13 13:00N 42°48' E 010°12'0 0.0
2017-Aug-13 12:11N 42°48' E 010°12'0 0.5
2017-Aug-13 11:32N 42°49' E 010°12'0 8.4
2017-Aug-13 11:28N 42°49' E 010°13'4 7.8
2017-Aug-13 10:56N 42°50' E 010°18'1 2.6
2017-Aug-13 10:29N 42°49' E 010°19'1 1.6
2017-Aug-13 10:00N 42°50' E 010°19'2 4.2
2017-Aug-13 09:25N 42°50' E 010°16'1 1.6
2017-Aug-13 09:00N 42°50' E 010°17'2 3.9
2017-Aug-13 08:30N 42°49' E 010°19'0 0.0
2017-Aug-13 07:58N 42°49' E 010°19'2 4.7
2017-Aug-13 07:29N 42°50' E 010°17'4 7.6
2017-Aug-13 07:00N 42°48' E 010°12'0 0.3
2017-Aug-13 06:30N 42°49' E 010°12'0 0.0
2017-Aug-13 06:00N 42°49' E 010°12'0 0.0
2017-Aug-13 05:23N 42°49' E 010°12'0 0.0
2017-Aug-13 05:00N 42°49' E 010°12'0 0.0
2017-Aug-13 04:30N 42°49' E 010°12'0 0.0
2017-Aug-13 03:58N 42°49' E 010°12'0 0.0
2017-Aug-13 03:30N 42°49' E 010°12'0 0.0
2017-Aug-13 03:00N 42°49' E 010°12'0 0.0
2017-Aug-13 02:30N 42°49' E 010°12'0 0.0
2017-Aug-13 02:00N 42°49' E 010°12'0 0.0
2017-Aug-13 01:30N 42°49' E 010°12'0 0.0
2017-Aug-13 01:00N 42°49' E 010°12'0 0.0
2017-Aug-13 00:18N 42°49' E 010°12'0 0.0
2017-Aug-12 23:59N 42°49' E 010°12'0 0.0
2017-Aug-12 23:30N 42°49' E 010°12'0 0.0
2017-Aug-12 22:59N 42°49' E 010°12'0 0.1
2017-Aug-12 22:30N 42°49' E 010°12'0 0.3
2017-Aug-12 22:00N 42°49' E 010°12'0 0.3
2017-Aug-12 21:28N 42°49' E 010°12'0 0.0
2017-Aug-12 20:40N 42°49' E 010°12'0 0.0
2017-Aug-12 20:30N 42°49' E 010°12'0 0.0
2017-Aug-12 19:47N 42°49' E 010°12'0 0.0
2017-Aug-12 19:24N 42°49' E 010°12'0 0.0
2017-Aug-12 19:00N 42°49' E 010°12'0 0.0
2017-Aug-12 18:30N 42°49' E 010°12'0 0.0
2017-Aug-12 18:00N 42°49' E 010°12'0 0.0
2017-Aug-12 17:30N 42°49' E 010°12'0 0.0
2017-Aug-12 16:55N 42°49' E 010°12'0 0.0
2017-Aug-12 16:30N 42°49' E 010°12'0 0.0
2017-Aug-12 16:00N 42°49' E 010°12'0 0.0
2017-Aug-12 15:30N 42°49' E 010°12'0 0.0
2017-Aug-12 15:00N 42°49' E 010°12'0 0.0
2017-Aug-12 14:30N 42°49' E 010°12'0 0.0
2017-Aug-12 13:57N 42°49' E 010°12'0 0.0
2017-Aug-12 13:26N 42°49' E 010°12'0 0.0
2017-Aug-12 12:50N 42°49' E 010°12'0 0.0
2017-Aug-12 12:18N 42°49' E 010°12'0 0.0
2017-Aug-12 11:55N 42°49' E 010°12'0 0.0
2017-Aug-12 11:29N 42°49' E 010°12'0 0.0
2017-Aug-12 10:59N 42°49' E 010°12'0 0.0
2017-Aug-12 10:29N 42°49' E 010°12'0 0.0
2017-Aug-12 10:00N 42°49' E 010°12'0 0.0
2017-Aug-12 09:30N 42°49' E 010°12'0 0.0
2017-Aug-12 09:00N 42°49' E 010°12'0 0.0
2017-Aug-12 08:30N 42°49' E 010°12'0 0.0
2017-Aug-12 07:58N 42°49' E 010°12'0 0.0
2017-Aug-12 07:30N 42°49' E 010°12'0 0.0
2017-Aug-12 06:58N 42°49' E 010°12'0 0.0
2017-Aug-12 06:30N 42°49' E 010°12'0 0.0
2017-Aug-12 05:59N 42°49' E 010°12'0 0.0
2017-Aug-12 05:30N 42°49' E 010°12'0 0.0
2017-Aug-12 04:58N 42°49' E 010°12'0 0.0
2017-Aug-12 04:29N 42°49' E 010°12'0 0.0
2017-Aug-12 04:00N 42°49' E 010°12'0 0.0
2017-Aug-12 03:30N 42°49' E 010°12'0 0.0
2017-Aug-12 03:00N 42°49' E 010°12'0 0.0
2017-Aug-12 02:30N 42°49' E 010°12'0 0.0
2017-Aug-12 01:59N 42°49' E 010°12'0 0.0
2017-Aug-12 01:30N 42°49' E 010°12'0 0.0
2017-Aug-12 01:00N 42°49' E 010°12'0 0.0
2017-Aug-12 00:29N 42°49' E 010°12'0 0.0
2017-Aug-12 00:00N 42°49' E 010°12'0 0.0
2017-Aug-11 23:30N 42°49' E 010°12'0 0.0
2017-Aug-11 22:59N 42°49' E 010°12'0 0.0
2017-Aug-11 22:29N 42°49' E 010°12'0 0.0
2017-Aug-11 21:56N 42°49' E 010°12'0 0.0
2017-Aug-11 21:30N 42°49' E 010°12'0 0.0
2017-Aug-11 21:00N 42°49' E 010°12'0 0.0
2017-Aug-11 20:29N 42°49' E 010°12'0 0.0
2017-Aug-11 20:00N 42°49' E 010°12'0 0.0
2017-Aug-11 19:29N 42°49' E 010°12'0 0.0
2017-Aug-11 19:00N 42°49' E 010°12'0 0.0
2017-Aug-11 18:27N 42°49' E 010°12'0 0.0
2017-Aug-11 17:59N 42°49' E 010°12'0 0.0
2017-Aug-11 17:30N 42°49' E 010°12'0 0.0
2017-Aug-11 16:59N 42°49' E 010°12'0 0.0
2017-Aug-11 16:29N 42°49' E 010°12'0 0.0
2017-Aug-11 16:00N 42°49' E 010°12'0 0.0
2017-Aug-11 15:29N 42°49' E 010°12'0 0.0
2017-Aug-11 14:58N 42°49' E 010°12'0 0.0
2017-Aug-11 13:59N 42°49' E 010°12'0 0.0
2017-Aug-11 13:30N 42°49' E 010°12'0 0.0
2017-Aug-11 13:00N 42°49' E 010°12'0 0.0
2017-Aug-11 12:29N 42°49' E 010°12'0 0.0
2017-Aug-11 11:59N 42°49' E 010°12'0 0.0
2017-Aug-11 11:30N 42°49' E 010°12'0 0.0
2017-Aug-11 10:59N 42°49' E 010°12'0 0.0
2017-Aug-11 10:29N 42°49' E 010°12'0 0.0
2017-Aug-11 10:00N 42°49' E 010°12'0 0.0
2017-Aug-11 09:30N 42°49' E 010°12'0 0.0
2017-Aug-11 09:00N 42°49' E 010°12'0 0.0
2017-Aug-11 08:30N 42°49' E 010°12'0 0.0
2017-Aug-11 08:00N 42°49' E 010°12'0 0.0
2017-Aug-11 07:30N 42°49' E 010°12'0 0.0
2017-Aug-11 07:00N 42°49' E 010°12'0 0.0
2017-Aug-11 06:30N 42°49' E 010°12'0 0.0
2017-Aug-11 05:59N 42°49' E 010°12'0 0.0
2017-Aug-11 05:30N 42°49' E 010°12'0 0.0
2017-Aug-11 05:00N 42°49' E 010°12'0 0.0
2017-Aug-11 04:30N 42°49' E 010°12'0 0.0
2017-Aug-11 04:00N 42°49' E 010°12'0 0.0
2017-Aug-11 03:30N 42°49' E 010°12'0 0.0
2017-Aug-11 03:00N 42°49' E 010°12'0 0.0
2017-Aug-11 02:30N 42°49' E 010°12'0 0.0
2017-Aug-11 02:00N 42°49' E 010°12'0 0.0
2017-Aug-11 01:29N 42°49' E 010°12'0 0.0
2017-Aug-11 01:00N 42°49' E 010°12'0 0.0
2017-Aug-11 00:30N 42°49' E 010°12'0 0.0
2017-Aug-11 00:00N 42°49' E 010°12'0 0.0
2017-Aug-10 23:30N 42°49' E 010°12'0 0.0
2017-Aug-10 23:00N 42°49' E 010°12'0 0.0
2017-Aug-10 22:30N 42°49' E 010°12'0 0.0
2017-Aug-10 21:59N 42°49' E 010°12'0 0.0
2017-Aug-10 21:30N 42°49' E 010°12'0 0.0
2017-Aug-10 21:00N 42°49' E 010°12'0 0.0
2017-Aug-10 20:30N 42°49' E 010°12'0 0.0
2017-Aug-10 20:00N 42°49' E 010°12'0 0.0
2017-Aug-10 19:30N 42°49' E 010°12'0 0.0
2017-Aug-10 18:59N 42°49' E 010°12'0 0.0
2017-Aug-10 18:28N 42°49' E 010°12'0 0.0
2017-Aug-10 17:58N 42°49' E 010°12'0 0.0
2017-Aug-10 17:28N 42°49' E 010°12'0 0.0
2017-Aug-10 17:00N 42°49' E 010°12'0 0.0
2017-Aug-10 16:27N 42°49' E 010°12'0 0.0
2017-Aug-10 15:49N 42°49' E 010°12'0 0.0
2017-Aug-10 15:19N 42°49' E 010°12'0 0.0
2017-Aug-10 15:00N 42°49' E 010°12'0 0.0
2017-Aug-10 14:30N 42°49' E 010°12'0 0.0
2017-Aug-10 14:00N 42°49' E 010°12'0 0.0
2017-Aug-10 13:30N 42°49' E 010°12'0 0.0
2017-Aug-10 13:00N 42°49' E 010°12'0 0.0
2017-Aug-10 12:30N 42°49' E 010°12'0 0.0
2017-Aug-10 12:00N 42°49' E 010°12'0 0.0
2017-Aug-10 11:30N 42°49' E 010°12'0 0.0
2017-Aug-10 11:00N 42°49' E 010°12'0 0.0
2017-Aug-10 10:29N 42°49' E 010°12'0 0.0
2017-Aug-10 10:00N 42°49' E 010°12'0 0.0
2017-Aug-10 06:25N 42°49' E 010°12'0 0.0
2017-Aug-10 05:47N 42°49' E 010°12'0 0.0
2017-Aug-10 05:27N 42°49' E 010°12'0 0.0
2017-Aug-10 04:57N 42°49' E 010°12'0 0.0
2017-Aug-10 04:26N 42°49' E 010°12'0 0.0
2017-Aug-10 04:00N 42°49' E 010°12'0 0.0
2017-Aug-10 03:17N 42°49' E 010°12'0 0.0
2017-Aug-10 03:00N 42°49' E 010°12'0 0.0
2017-Aug-10 02:30N 42°49' E 010°12'0 0.0
2017-Aug-10 02:00N 42°49' E 010°12'0 0.0
2017-Aug-10 01:30N 42°49' E 010°12'0 0.0
2017-Aug-10 01:00N 42°49' E 010°12'0 0.0
2017-Aug-10 00:30N 42°49' E 010°12'0 0.0
2017-Aug-10 00:00N 42°49' E 010°12'0 0.0
2017-Aug-09 23:29N 42°49' E 010°12'0 0.0
2017-Aug-09 23:00N 42°49' E 010°12'0 0.0
2017-Aug-09 22:30N 42°49' E 010°12'0 0.0
2017-Aug-09 22:00N 42°49' E 010°12'0 0.0
2017-Aug-09 21:30N 42°49' E 010°12'0 0.0
2017-Aug-09 21:00N 42°49' E 010°12'0 0.0
2017-Aug-09 20:30N 42°49' E 010°12'0 0.0
2017-Aug-09 20:00N 42°49' E 010°12'0 0.0
2017-Aug-09 19:29N 42°49' E 010°12'0 0.0
2017-Aug-09 18:49N 42°49' E 010°12'0 0.0
2017-Aug-09 18:28N 42°49' E 010°12'0 0.0
2017-Aug-09 17:56N 42°49' E 010°12'0 0.0
2017-Aug-09 17:30N 42°49' E 010°12'0 0.0
2017-Aug-09 17:00N 42°49' E 010°12'0 0.0
2017-Aug-09 16:29N 42°49' E 010°12'0 0.2
2017-Aug-09 15:59N 42°48' E 010°12'4 7.5
2017-Aug-09 15:30N 42°48' E 010°07'1 0.5
2017-Aug-09 14:13N 42°48' E 010°06'2 8.4
2017-Aug-09 14:00N 42°49' E 010°08'3 1.3
2017-Aug-09 11:57N 42°48' E 010°12'0 0.0
2017-Aug-09 06:56N 42°49' E 010°12'0 0.0
2017-Aug-09 06:30N 42°49' E 010°12'0 0.0
2017-Aug-09 05:53N 42°49' E 010°12'0 0.0
2017-Aug-09 05:27N 42°49' E 010°12'0 0.0
2017-Aug-09 04:51N 42°49' E 010°12'0 0.0
2017-Aug-09 04:30N 42°49' E 010°12'0 0.0
2017-Aug-09 03:59N 42°49' E 010°12'0 0.0
2017-Aug-09 03:29N 42°49' E 010°12'0 0.0
2017-Aug-09 02:09N 42°49' E 010°12'0 0.0
2017-Aug-09 02:00N 42°49' E 010°12'0 0.0
2017-Aug-09 01:28N 42°49' E 010°12'0 0.0
2017-Aug-09 01:00N 42°49' E 010°12'0 0.0
2017-Aug-09 00:29N 42°49' E 010°12'0 0.0
2017-Aug-09 00:00N 42°49' E 010°12'0 0.0
2017-Aug-08 23:25N 42°49' E 010°12'0 0.0
2017-Aug-08 23:00N 42°49' E 010°12'0 0.0
2017-Aug-08 22:30N 42°49' E 010°12'0 0.0
2017-Aug-08 22:00N 42°49' E 010°12'0 0.0
2017-Aug-08 21:27N 42°49' E 010°12'0 0.0
2017-Aug-08 20:59N 42°49' E 010°12'0 0.0
2017-Aug-08 20:28N 42°49' E 010°12'0 0.0
2017-Aug-08 20:00N 42°49' E 010°12'0 0.0
2017-Aug-08 19:30N 42°49' E 010°12'0 0.0
2017-Aug-08 19:00N 42°49' E 010°12'0 0.0
2017-Aug-08 18:30N 42°49' E 010°12'0 0.0
2017-Aug-08 18:00N 42°49' E 010°12'0 0.0
2017-Aug-08 17:29N 42°49' E 010°12'0 0.0
2017-Aug-08 17:00N 42°49' E 010°12'0 0.0
2017-Aug-08 16:30N 42°49' E 010°12'0 0.3
2017-Aug-08 16:00N 42°48' E 010°12'3 6.7
2017-Aug-08 15:30N 42°49' E 010°07'1 0.4
2017-Aug-08 14:06N 42°48' E 010°07'2 8.2
2017-Aug-08 13:54N 42°49' E 010°09'2 5.4
2017-Aug-08 13:28N 42°48' E 010°12'  

Dump ship's entire track history